sensor_id;sensor_type;location;lat;lon;timestamp;P1;durP1;ratioP1;P2;durP2;ratioP2
47764;SDS011;33529;49.242;8.670;2022-09-09T17:30:11;18.83;;;11.25;;
47764;SDS011;33529;49.242;8.670;2022-09-09T17:32:38;4.82;;;2.22;;
47764;SDS011;33529;49.242;8.670;2022-09-09T17:35:05;2.55;;;1.13;;
47764;SDS011;33529;49.242;8.670;2022-09-09T17:37:32;5.90;;;3.10;;
47764;SDS011;33529;49.242;8.670;2022-09-09T17:39:59;8.05;;;3.72;;
47764;SDS011;33529;49.242;8.670;2022-09-09T17:42:27;13.15;;;6.47;;
47764;SDS011;33529;49.242;8.670;2022-09-09T17:44:55;1.77;;;1.45;;
47764;SDS011;33529;49.242;8.670;2022-09-09T17:47:21;1.33;;;0.68;;
47764;SDS011;33529;49.242;8.670;2022-09-09T17:49:48;0.70;;;0.50;;
47764;SDS011;33529;49.242;8.670;2022-09-09T17:52:15;0.88;;;0.60;;
47764;SDS011;33529;49.242;8.670;2022-09-09T17:54:42;0.22;;;0.22;;
47764;SDS011;33529;49.242;8.670;2022-09-09T17:57:09;1.13;;;0.43;;
47764;SDS011;33529;49.242;8.670;2022-09-09T17:59:36;0.30;;;0.22;;
47764;SDS011;33529;49.242;8.670;2022-09-09T18:02:03;0.10;;;0.10;;
47764;SDS011;33529;49.242;8.670;2022-09-09T18:04:31;0.45;;;0.15;;
47764;SDS011;33529;49.242;8.670;2022-09-09T18:06:58;0.20;;;0.20;;
47764;SDS011;33529;49.242;8.670;2022-09-09T18:09:25;0.52;;;0.38;;
47764;SDS011;33529;49.242;8.670;2022-09-09T18:11:54;0.50;;;0.30;;
47764;SDS011;33529;49.242;8.670;2022-09-09T18:14:24;0.50;;;0.20;;
47764;SDS011;33529;49.242;8.670;2022-09-09T18:16:53;0.20;;;0.20;;
47764;SDS011;33529;49.242;8.670;2022-09-09T18:19:22;0.20;;;0.20;;
47764;SDS011;33529;49.242;8.670;2022-09-09T18:21:51;0.10;;;0.10;;
47764;SDS011;33529;49.242;8.670;2022-09-09T18:24:21;0.52;;;0.43;;
47764;SDS011;33529;49.242;8.670;2022-09-09T18:26:48;0.30;;;0.30;;
47764;SDS011;33529;49.242;8.670;2022-09-09T18:29:17;0.20;;;0.20;;
47764;SDS011;33529;49.242;8.670;2022-09-09T18:31:46;0.20;;;0.20;;
47764;SDS011;33529;49.242;8.670;2022-09-09T18:34:14;0.30;;;0.20;;
47764;SDS011;33529;49.242;8.670;2022-09-09T18:36:44;0.20;;;0.20;;
47764;SDS011;33529;49.242;8.670;2022-09-09T18:39:15;0.45;;;0.22;;
47764;SDS011;33529;49.242;8.670;2022-09-09T18:41:44;0.50;;;0.40;;
47764;SDS011;33529;49.242;8.670;2022-09-09T18:44:23;0.30;;;0.20;;
47764;SDS011;33529;49.242;8.670;2022-09-09T18:46:52;0.20;;;0.20;;
47764;SDS011;33529;49.242;8.670;2022-09-09T18:49:20;0.28;;;0.28;;
47764;SDS011;33529;49.242;8.670;2022-09-09T18:51:49;0.17;;;0.17;;
47764;SDS011;33529;49.242;8.670;2022-09-09T18:54:17;0.43;;;0.20;;
47764;SDS011;33529;49.242;8.670;2022-09-09T18:56:47;0.10;;;0.10;;
47764;SDS011;33529;49.242;8.670;2022-09-09T18:59:16;0.98;;;0.40;;
47764;SDS011;33529;49.242;8.670;2022-09-09T19:01:47;0.38;;;0.25;;
47764;SDS011;33529;49.242;8.670;2022-09-09T19:04:16;1.33;;;0.40;;
47764;SDS011;33529;49.242;8.670;2022-09-09T19:06:44;0.32;;;0.28;;
47764;SDS011;33529;49.242;8.670;2022-09-09T19:09:14;0.32;;;0.30;;
47764;SDS011;33529;49.242;8.670;2022-09-09T19:11:43;0.60;;;0.22;;
47764;SDS011;33529;49.242;8.670;2022-09-09T19:14:12;0.52;;;0.30;;
47764;SDS011;33529;49.242;8.670;2022-09-09T19:16:40;0.30;;;0.30;;
47764;SDS011;33529;49.242;8.670;2022-09-09T19:19:12;0.45;;;0.30;;
47764;SDS011;33529;49.242;8.670;2022-09-09T19:21:48;0.40;;;0.30;;
47764;SDS011;33529;49.242;8.670;2022-09-09T19:24:18;0.30;;;0.30;;
47764;SDS011;33529;49.242;8.670;2022-09-09T19:26:48;0.10;;;0.10;;
47764;SDS011;33529;49.242;8.670;2022-09-09T19:29:18;0.53;;;0.47;;
47764;SDS011;33529;49.242;8.670;2022-09-09T19:31:48;0.30;;;0.20;;
47764;SDS011;33529;49.242;8.670;2022-09-09T19:34:36;1.35;;;0.52;;
47764;SDS011;33529;49.242;8.670;2022-09-09T19:37:06;0.25;;;0.25;;
47764;SDS011;33529;49.242;8.670;2022-09-09T19:39:33;0.30;;;0.20;;
47764;SDS011;33529;49.242;8.670;2022-09-09T19:42:00;0.50;;;0.25;;
47764;SDS011;33529;49.242;8.670;2022-09-09T19:44:27;0.20;;;0.20;;
47764;SDS011;33529;49.242;8.670;2022-09-09T19:46:54;0.55;;;0.20;;
47764;SDS011;33529;49.242;8.670;2022-09-09T19:49:21;0.30;;;0.30;;
47764;SDS011;33529;49.242;8.670;2022-09-09T19:51:48;0.30;;;0.30;;
47764;SDS011;33529;49.242;8.670;2022-09-09T19:54:15;0.40;;;0.22;;
47764;SDS011;33529;49.242;8.670;2022-09-09T19:56:42;0.35;;;0.30;;
47764;SDS011;33529;49.242;8.670;2022-09-09T19:59:10;0.17;;;0.17;;
47764;SDS011;33529;49.242;8.670;2022-09-09T20:01:39;0.73;;;0.47;;
47764;SDS011;33529;49.242;8.670;2022-09-09T20:04:10;0.30;;;0.20;;
47764;SDS011;33529;49.242;8.670;2022-09-09T20:06:38;0.32;;;0.25;;
47764;SDS011;33529;49.242;8.670;2022-09-09T20:09:07;0.22;;;0.22;;
47764;SDS011;33529;49.242;8.670;2022-09-09T20:11:39;0.30;;;0.30;;
47764;SDS011;33529;49.242;8.670;2022-09-09T20:14:07;0.38;;;0.30;;
47764;SDS011;33529;49.242;8.670;2022-09-09T20:16:35;1.98;;;0.30;;
47764;SDS011;33529;49.242;8.670;2022-09-09T20:19:03;0.22;;;0.20;;
47764;SDS011;33529;49.242;8.670;2022-09-09T20:21:35;3.85;;;0.63;;
47764;SDS011;33529;49.242;8.670;2022-09-09T20:24:07;0.38;;;0.38;;
47764;SDS011;33529;49.242;8.670;2022-09-09T20:26:36;0.45;;;0.28;;
47764;SDS011;33529;49.242;8.670;2022-09-09T20:29:04;0.22;;;0.20;;
47764;SDS011;33529;49.242;8.670;2022-09-09T20:31:41;0.30;;;0.20;;
47764;SDS011;33529;49.242;8.670;2022-09-09T20:34:13;0.22;;;0.20;;
47764;SDS011;33529;49.242;8.670;2022-09-09T20:36:42;0.30;;;0.30;;
47764;SDS011;33529;49.242;8.670;2022-09-09T20:39:10;0.30;;;0.22;;
47764;SDS011;33529;49.242;8.670;2022-09-09T20:41:38;0.98;;;0.30;;
47764;SDS011;33529;49.242;8.670;2022-09-09T20:44:09;0.30;;;0.28;;
47764;SDS011;33529;49.242;8.670;2022-09-09T20:46:44;0.30;;;0.30;;
47764;SDS011;33529;49.242;8.670;2022-09-09T20:49:16;0.63;;;0.30;;
47764;SDS011;33529;49.242;8.670;2022-09-09T20:51:45;0.95;;;0.47;;
47764;SDS011;33529;49.242;8.670;2022-09-09T20:54:33;0.57;;;0.35;;
47764;SDS011;33529;49.242;8.670;2022-09-09T20:57:01;0.73;;;0.73;;
47764;SDS011;33529;49.242;8.670;2022-09-09T20:59:28;0.73;;;0.28;;
47764;SDS011;33529;49.242;8.670;2022-09-09T21:02:00;0.20;;;0.20;;
47764;SDS011;33529;49.242;8.670;2022-09-09T21:04:27;0.50;;;0.22;;
47764;SDS011;33529;49.242;8.670;2022-09-09T21:06:55;0.17;;;0.10;;
47764;SDS011;33529;49.242;8.670;2022-09-09T21:09:21;1.38;;;0.35;;
47764;SDS011;33529;49.242;8.670;2022-09-09T21:11:50;0.10;;;0.10;;
47764;SDS011;33529;49.242;8.670;2022-09-09T21:14:18;0.20;;;0.20;;
47764;SDS011;33529;49.242;8.670;2022-09-09T21:16:45;0.25;;;0.22;;
47764;SDS011;33529;49.242;8.670;2022-09-09T21:19:13;0.30;;;0.20;;
47764;SDS011;33529;49.242;8.670;2022-09-09T21:21:41;0.38;;;0.30;;
47764;SDS011;33529;49.242;8.670;2022-09-09T21:24:08;0.38;;;0.35;;
47764;SDS011;33529;49.242;8.670;2022-09-09T21:26:36;0.20;;;0.20;;
47764;SDS011;33529;49.242;8.670;2022-09-09T21:29:02;1.13;;;0.30;;
47764;SDS011;33529;49.242;8.670;2022-09-09T21:31:29;0.32;;;0.32;;
47764;SDS011;33529;49.242;8.670;2022-09-09T21:33:57;0.28;;;0.28;;
47764;SDS011;33529;49.242;8.670;2022-09-09T21:36:24;0.52;;;0.30;;
47764;SDS011;33529;49.242;8.670;2022-09-09T21:38:55;0.20;;;0.20;;
47764;SDS011;33529;49.242;8.670;2022-09-09T21:41:24;0.68;;;0.28;;
47764;SDS011;33529;49.242;8.670;2022-09-09T21:43:52;0.30;;;0.20;;
47764;SDS011;33529;49.242;8.670;2022-09-09T21:46:20;0.60;;;0.30;;
47764;SDS011;33529;49.242;8.670;2022-09-09T21:48:48;0.65;;;0.30;;
47764;SDS011;33529;49.242;8.670;2022-09-09T21:51:16;0.57;;;0.20;;
47764;SDS011;33529;49.242;8.670;2022-09-09T21:53:43;0.15;;;0.15;;
47764;SDS011;33529;49.242;8.670;2022-09-09T21:56:12;0.35;;;0.22;;
47764;SDS011;33529;49.242;8.670;2022-09-09T21:58:41;0.20;;;0.20;;
47764;SDS011;33529;49.242;8.670;2022-09-09T22:01:11;0.50;;;0.30;;
47764;SDS011;33529;49.242;8.670;2022-09-09T22:03:40;0.20;;;0.20;;
47764;SDS011;33529;49.242;8.670;2022-09-09T22:06:09;0.10;;;0.10;;
47764;SDS011;33529;49.242;8.670;2022-09-09T22:08:39;0.47;;;0.20;;
47764;SDS011;33529;49.242;8.670;2022-09-09T22:11:07;0.25;;;0.20;;
47764;SDS011;33529;49.242;8.670;2022-09-09T22:13:35;0.40;;;0.20;;
47764;SDS011;33529;49.242;8.670;2022-09-09T22:16:04;0.40;;;0.20;;
47764;SDS011;33529;49.242;8.670;2022-09-09T22:18:32;0.38;;;0.30;;
47764;SDS011;33529;49.242;8.670;2022-09-09T22:21:06;0.52;;;0.30;;
47764;SDS011;33529;49.242;8.670;2022-09-09T22:23:35;1.23;;;0.50;;
47764;SDS011;33529;49.242;8.670;2022-09-09T22:26:03;0.30;;;0.30;;
47764;SDS011;33529;49.242;8.670;2022-09-09T22:28:30;0.35;;;0.25;;
47764;SDS011;33529;49.242;8.670;2022-09-09T22:30:58;0.30;;;0.28;;
47764;SDS011;33529;49.242;8.670;2022-09-09T22:33:26;0.20;;;0.20;;
47764;SDS011;33529;49.242;8.670;2022-09-09T22:35:53;0.68;;;0.43;;
47764;SDS011;33529;49.242;8.670;2022-09-09T22:38:20;0.20;;;0.20;;
47764;SDS011;33529;49.242;8.670;2022-09-09T22:40:47;0.22;;;0.22;;
47764;SDS011;33529;49.242;8.670;2022-09-09T22:43:18;0.50;;;0.40;;
47764;SDS011;33529;49.242;8.670;2022-09-09T22:45:46;0.20;;;0.20;;
47764;SDS011;33529;49.242;8.670;2022-09-09T22:48:14;0.20;;;0.20;;
47764;SDS011;33529;49.242;8.670;2022-09-09T22:50:41;0.40;;;0.22;;
47764;SDS011;33529;49.242;8.670;2022-09-09T22:53:11;0.20;;;0.20;;
47764;SDS011;33529;49.242;8.670;2022-09-09T22:55:40;0.43;;;0.23;;
47764;SDS011;33529;49.242;8.670;2022-09-09T22:58:07;0.50;;;0.22;;
47764;SDS011;33529;49.242;8.670;2022-09-09T23:00:34;0.20;;;0.17;;
47764;SDS011;33529;49.242;8.670;2022-09-09T23:03:05;0.50;;;0.40;;
47764;SDS011;33529;49.242;8.670;2022-09-09T23:05:33;0.20;;;0.20;;
47764;SDS011;33529;49.242;8.670;2022-09-09T23:08:00;0.25;;;0.20;;
47764;SDS011;33529;49.242;8.670;2022-09-09T23:10:27;0.38;;;0.20;;
47764;SDS011;33529;49.242;8.670;2022-09-09T23:12:57;0.40;;;0.20;;
47764;SDS011;33529;49.242;8.670;2022-09-09T23:15:24;0.35;;;0.30;;
47764;SDS011;33529;49.242;8.670;2022-09-09T23:17:50;0.60;;;0.30;;
47764;SDS011;33529;49.242;8.670;2022-09-09T23:20:17;0.38;;;0.10;;
47764;SDS011;33529;49.242;8.670;2022-09-09T23:22:44;0.10;;;0.10;;
47764;SDS011;33529;49.242;8.670;2022-09-09T23:25:11;0.20;;;0.13;;
47764;SDS011;33529;49.242;8.670;2022-09-09T23:27:38;0.20;;;0.10;;
47764;SDS011;33529;49.242;8.670;2022-09-09T23:30:05;0.35;;;0.20;;
47764;SDS011;33529;49.242;8.670;2022-09-09T23:32:33;0.98;;;0.20;;
47764;SDS011;33529;49.242;8.670;2022-09-09T23:34:59;0.20;;;0.20;;
47764;SDS011;33529;49.242;8.670;2022-09-09T23:37:26;0.47;;;0.28;;
47764;SDS011;33529;49.242;8.670;2022-09-09T23:39:57;0.25;;;0.22;;
47764;SDS011;33529;49.242;8.670;2022-09-09T23:42:23;0.82;;;0.30;;
47764;SDS011;33529;49.242;8.670;2022-09-09T23:44:52;0.63;;;0.25;;
47764;SDS011;33529;49.242;8.670;2022-09-09T23:47:19;0.20;;;0.20;;
47764;SDS011;33529;49.242;8.670;2022-09-09T23:49:45;0.43;;;0.20;;
47764;SDS011;33529;49.242;8.670;2022-09-09T23:52:15;0.20;;;0.20;;
47764;SDS011;33529;49.242;8.670;2022-09-09T23:54:46;0.17;;;0.13;;
47764;SDS011;33529;49.242;8.670;2022-09-09T23:57:14;0.63;;;0.20;;
47764;SDS011;33529;49.242;8.670;2022-09-09T23:59:41;0.10;;;0.10;;
